createdAt,value
2023-04-29T00:00:06.894Z,9.88
2023-04-29T00:02:37.670Z,9.90
2023-04-29T00:05:11.055Z,9.97
2023-04-29T00:07:42.313Z,10.01
2023-04-29T00:10:14.917Z,10.03
2023-04-29T00:12:49.393Z,10.08
2023-04-29T00:15:21.946Z,10.10
2023-04-29T00:17:51.815Z,10.11
2023-04-29T00:20:21.836Z,10.10
2023-04-29T00:22:51.703Z,10.06
2023-04-29T00:25:21.589Z,10.12
2023-04-29T00:27:51.480Z,10.11
2023-04-29T00:30:23.902Z,10.09
2023-04-29T00:32:53.952Z,10.08
2023-04-29T00:35:23.826Z,10.10
2023-04-29T00:37:53.899Z,10.07
2023-04-29T00:40:24.145Z,10.12
2023-04-29T00:42:54.186Z,10.11
2023-04-29T00:45:27.876Z,10.12
2023-04-29T00:47:57.738Z,10.11
2023-04-29T00:50:28.075Z,10.17
2023-04-29T00:52:57.942Z,10.16
2023-04-29T00:55:29.206Z,10.12
2023-04-29T00:57:59.913Z,10.16
2023-04-29T01:00:33.199Z,10.18
2023-04-29T01:03:04.428Z,10.16
2023-04-29T01:05:40.449Z,10.15
2023-04-29T01:08:32.901Z,10.14
2023-04-29T01:11:11.091Z,10.14
2023-04-29T01:13:47.239Z,10.08
2023-04-29T01:16:26.496Z,10.03
2023-04-29T01:19:01.636Z,10.00
2023-04-29T01:21:32.306Z,9.99
2023-04-29T01:24:04.726Z,10.02
2023-04-29T01:26:36.148Z,10.04
2023-04-29T01:29:27.737Z,10.07
2023-04-29T01:32:09.238Z,10.10
2023-04-29T01:34:48.020Z,10.16
2023-04-29T01:37:23.027Z,10.17
2023-04-29T01:40:11.204Z,10.19
2023-04-29T01:42:47.256Z,10.22
2023-04-29T01:45:21.574Z,10.21
2023-04-29T01:47:56.194Z,10.19
2023-04-29T01:50:26.885Z,10.27
2023-04-29T01:52:56.752Z,10.27
2023-04-29T01:55:29.468Z,10.24
2023-04-29T01:57:59.290Z,10.29
2023-04-29T02:00:29.935Z,10.33
2023-04-29T02:02:59.905Z,10.37
2023-04-29T02:05:34.542Z,10.33
2023-04-29T02:08:10.377Z,10.34
2023-04-29T02:10:45.506Z,10.38
2023-04-29T02:13:15.347Z,10.37
2023-04-29T02:15:45.217Z,10.35
2023-04-29T02:18:15.070Z,10.35
2023-04-29T02:20:45.095Z,10.34
2023-04-29T02:23:14.904Z,10.34
2023-04-29T02:25:47.981Z,10.34
2023-04-29T02:28:18.082Z,10.37
2023-04-29T02:30:48.096Z,10.41
2023-04-29T02:33:18.618Z,10.48
2023-04-29T02:35:48.636Z,10.45
2023-04-29T02:38:18.524Z,10.47
2023-04-29T02:40:50.943Z,10.43
2023-04-29T02:43:20.733Z,10.44
2023-04-29T02:45:50.577Z,10.43
2023-04-29T02:48:21.546Z,10.46
2023-04-29T02:50:51.768Z,10.46
2023-04-29T02:53:22.122Z,10.47
2023-04-29T02:55:54.558Z,10.43
2023-04-29T02:58:24.428Z,10.38
2023-04-29T03:00:54.292Z,10.36
2023-04-29T03:03:24.286Z,10.38
2023-04-29T03:06:01.114Z,10.29
2023-04-29T03:08:30.921Z,10.28
2023-04-29T03:11:05.687Z,10.28
2023-04-29T03:13:35.551Z,10.29
2023-04-29T03:16:05.368Z,10.27
2023-04-29T03:18:35.217Z,10.34
2023-04-29T03:21:05.086Z,10.33
2023-04-29T03:23:34.913Z,10.42
2023-04-29T03:26:07.427Z,10.39
2023-04-29T03:28:37.320Z,10.37
2023-04-29T03:31:07.443Z,10.31
2023-04-29T03:33:39.592Z,10.31
2023-04-29T03:36:10.809Z,10.32
2023-04-29T03:38:40.600Z,10.33
2023-04-29T03:41:13.340Z,10.35
2023-04-29T03:43:45.133Z,10.35
2023-04-29T03:46:14.961Z,10.35
2023-04-29T03:48:44.774Z,10.34
2023-04-29T03:51:15.137Z,10.33
2023-04-29T03:53:48.080Z,10.30
2023-04-29T03:56:20.720Z,10.31
2023-04-29T03:58:50.587Z,10.32
2023-04-29T04:01:20.413Z,10.28
2023-04-29T04:03:51.152Z,10.30
2023-04-29T04:06:21.196Z,10.30
2023-04-29T04:08:51.016Z,10.32
2023-04-29T04:11:23.477Z,10.32
2023-04-29T04:13:53.317Z,10.35
2023-04-29T04:16:23.113Z,10.31
2023-04-29T04:18:52.909Z,10.24
2023-04-29T04:21:22.725Z,10.21
2023-04-29T04:23:52.527Z,10.23
2023-04-29T04:26:25.036Z,10.22
2023-04-29T04:28:54.873Z,10.21
2023-04-29T04:31:24.724Z,10.27
2023-04-29T04:33:54.563Z,10.27
2023-04-29T04:36:24.458Z,10.26
2023-04-29T04:38:54.282Z,10.28
2023-04-29T04:41:27.038Z,10.27
2023-04-29T04:43:56.831Z,10.27
2023-04-29T04:46:26.712Z,10.21
2023-04-29T04:48:56.583Z,10.22
2023-04-29T04:51:29.145Z,10.20
2023-04-29T04:53:58.969Z,10.20
2023-04-29T04:56:31.393Z,10.24
2023-04-29T04:59:01.219Z,10.24
2023-04-29T05:01:31.068Z,10.27
2023-04-29T05:04:01.028Z,10.29
2023-04-29T05:06:35.574Z,10.31
2023-04-29T05:09:05.651Z,10.36
2023-04-29T05:11:38.877Z,10.51
2023-04-29T05:14:09.200Z,10.71
2023-04-29T05:16:39.052Z,10.95
2023-04-29T05:19:09.843Z,11.24
2023-04-29T05:21:39.682Z,11.43
2023-04-29T05:24:09.772Z,11.61
2023-04-29T05:26:43.906Z,11.85
2023-04-29T05:29:13.885Z,12.10
2023-04-29T05:31:43.765Z,12.28
2023-04-29T05:34:13.650Z,12.48
2023-04-29T05:36:43.494Z,12.66
2023-04-29T05:39:13.394Z,12.76
2023-04-29T05:41:46.051Z,12.77
2023-04-29T05:44:15.895Z,12.81
2023-04-29T05:46:46.635Z,12.93
2023-04-29T05:49:16.466Z,13.05
2023-04-29T05:51:46.346Z,13.16
2023-04-29T05:54:16.167Z,13.18
2023-04-29T05:56:48.711Z,13.28
2023-04-29T05:59:18.559Z,13.35
2023-04-29T06:01:48.919Z,13.39
2023-04-29T06:04:18.836Z,13.47
2023-04-29T06:06:50.636Z,13.61
2023-04-29T06:09:27.582Z,13.71
2023-04-29T06:12:00.859Z,13.80
2023-04-29T06:14:30.678Z,13.94
2023-04-29T06:17:00.628Z,13.98
2023-04-29T06:19:30.533Z,14.16
2023-04-29T06:22:00.310Z,14.27
2023-04-29T06:24:30.169Z,14.27
2023-04-29T06:27:04.494Z,14.16
2023-04-29T06:29:36.073Z,14.20
2023-04-29T06:32:05.969Z,14.20
2023-04-29T06:34:36.350Z,14.23
2023-04-29T06:37:06.148Z,14.28
2023-04-29T06:39:35.987Z,14.37
2023-04-29T06:42:08.470Z,14.28
2023-04-29T06:44:38.300Z,14.22
2023-04-29T06:47:08.205Z,14.12
2023-04-29T06:49:38.142Z,14.18
2023-04-29T06:52:10.510Z,14.29
2023-04-29T06:54:40.373Z,14.16
2023-04-29T06:57:12.937Z,14.15
2023-04-29T06:59:42.826Z,14.27
2023-04-29T07:02:12.645Z,14.38
2023-04-29T07:04:42.681Z,14.54
2023-04-29T07:07:12.652Z,14.67
2023-04-29T07:09:42.552Z,14.75
2023-04-29T07:12:15.064Z,14.87
2023-04-29T07:14:51.204Z,14.90
2023-04-29T07:17:24.028Z,15.00
2023-04-29T07:19:58.056Z,15.10
2023-04-29T07:22:29.684Z,15.16
2023-04-29T07:24:59.633Z,15.21
2023-04-29T07:27:32.270Z,15.20
2023-04-29T07:30:03.388Z,15.12
2023-04-29T07:32:34.304Z,15.17
2023-04-29T07:35:04.173Z,15.17
2023-04-29T07:37:34.341Z,15.04
2023-04-29T07:40:04.156Z,15.04
2023-04-29T07:42:36.537Z,14.92
2023-04-29T07:45:06.762Z,14.93
2023-04-29T07:47:36.855Z,15.05
2023-04-29T07:50:07.048Z,15.16
2023-04-29T07:52:37.944Z,15.15
2023-04-29T07:55:08.665Z,15.19
2023-04-29T07:57:41.091Z,15.16
2023-04-29T08:00:12.702Z,15.21
2023-04-29T08:02:43.293Z,15.31
2023-04-29T08:05:13.700Z,15.36
2023-04-29T08:07:43.772Z,15.40
2023-04-29T08:10:13.713Z,15.48
2023-04-29T08:12:51.832Z,15.51
2023-04-29T08:15:21.652Z,15.45
2023-04-29T08:17:51.500Z,15.53
2023-04-29T08:20:21.750Z,15.56
2023-04-29T08:22:51.591Z,15.50
2023-04-29T08:25:21.765Z,15.50
2023-04-29T08:27:54.154Z,15.43
2023-04-29T08:30:24.126Z,15.32
2023-04-29T08:32:54.005Z,15.27
2023-04-29T08:35:24.046Z,15.44
2023-04-29T08:37:56.061Z,15.62
2023-04-29T08:40:26.640Z,15.85
2023-04-29T08:43:00.425Z,15.86
2023-04-29T08:45:32.654Z,15.79
2023-04-29T08:48:05.652Z,15.76
2023-04-29T08:50:40.237Z,15.84
2023-04-29T08:53:10.891Z,15.67
2023-04-29T08:55:45.141Z,15.64
2023-04-29T08:58:20.515Z,15.70
2023-04-29T09:00:51.821Z,15.81
2023-04-29T09:03:27.984Z,15.84
2023-04-29T09:06:05.580Z,15.87
2023-04-29T09:08:36.485Z,15.87
2023-04-29T09:11:07.537Z,15.88
2023-04-29T09:13:40.125Z,15.81
2023-04-29T09:16:14.190Z,15.73
2023-04-29T09:18:49.039Z,15.79
2023-04-29T09:21:22.320Z,15.97
2023-04-29T09:23:54.647Z,16.02
2023-04-29T09:26:25.323Z,16.06
2023-04-29T09:29:19.369Z,16.08
2023-04-29T09:31:49.888Z,16.07
2023-04-29T09:34:19.978Z,16.12
2023-04-29T09:36:51.221Z,16.09
2023-04-29T09:39:22.597Z,16.08
2023-04-29T09:42:03.483Z,16.04
2023-04-29T09:44:38.601Z,16.04
2023-04-29T09:47:09.683Z,16.07
2023-04-29T09:49:42.095Z,15.94
2023-04-29T09:52:13.747Z,15.94
2023-04-29T09:54:44.957Z,15.93
2023-04-29T09:57:16.159Z,15.94
2023-04-29T09:59:56.043Z,15.94
2023-04-29T10:02:26.798Z,15.92
2023-04-29T10:05:04.496Z,15.84
2023-04-29T10:07:39.551Z,15.81
2023-04-29T10:13:00.946Z,15.65
2023-04-29T10:15:45.519Z,15.36
2023-04-29T10:18:22.290Z,15.31
2023-04-29T10:20:52.897Z,15.35
2023-04-29T10:23:26.932Z,15.36
2023-04-29T10:26:06.401Z,15.42
2023-04-29T10:28:47.725Z,15.43
2023-04-29T10:34:09.622Z,15.49
2023-04-29T10:36:45.972Z,15.51
2023-04-29T10:39:25.814Z,15.57
2023-04-29T10:41:59.234Z,15.57
2023-04-29T10:44:33.252Z,15.52
2023-04-29T10:47:38.064Z,15.46
2023-04-29T10:50:21.484Z,15.43
2023-04-29T10:53:03.833Z,15.38
2023-04-29T10:55:34.429Z,15.35
2023-04-29T10:58:06.404Z,15.23
2023-04-29T11:00:38.024Z,15.17
2023-04-29T11:03:09.537Z,15.08
2023-04-29T11:05:53.735Z,15.16
2023-04-29T11:08:26.766Z,15.25
2023-04-29T11:10:58.644Z,15.24
2023-04-29T11:13:34.311Z,15.18
2023-04-29T11:16:10.329Z,15.09
2023-04-29T11:19:01.064Z,15.09
2023-04-29T11:21:41.010Z,15.11
2023-04-29T11:24:15.848Z,15.12
2023-04-29T11:26:46.677Z,15.17
2023-04-29T11:29:17.094Z,15.14
2023-04-29T11:31:47.119Z,15.24
2023-04-29T11:34:17.042Z,15.27
2023-04-29T11:36:51.353Z,15.23
2023-04-29T11:39:21.548Z,15.19
2023-04-29T11:41:57.220Z,15.11
2023-04-29T11:44:27.123Z,15.09
2023-04-29T11:46:57.195Z,15.07
2023-04-29T11:49:32.993Z,15.04
2023-04-29T11:52:05.593Z,15.13
2023-04-29T11:54:36.983Z,15.22
2023-04-29T11:57:07.442Z,15.36
2023-04-29T11:59:37.595Z,15.48
2023-04-29T12:02:07.530Z,15.48
2023-04-29T12:04:42.986Z,15.50
2023-04-29T12:07:17.759Z,15.55
2023-04-29T12:09:48.496Z,15.59
2023-04-29T12:12:18.828Z,15.65
2023-04-29T12:14:48.811Z,15.69
2023-04-29T12:17:19.084Z,15.76
2023-04-29T12:19:49.496Z,15.79
2023-04-29T12:22:22.759Z,15.84
2023-04-29T12:24:56.937Z,15.75
2023-04-29T12:27:27.125Z,15.68
2023-04-29T12:29:56.968Z,15.64
2023-04-29T12:32:28.559Z,15.66
2023-04-29T12:34:58.669Z,15.71
2023-04-29T12:37:31.223Z,15.62
2023-04-29T12:40:01.357Z,15.55
2023-04-29T12:42:36.372Z,15.57
2023-04-29T12:45:09.879Z,15.46
2023-04-29T12:47:42.488Z,15.43
2023-04-29T12:50:14.226Z,15.51
2023-04-29T12:52:53.005Z,15.50
2023-04-29T12:55:28.371Z,15.41
2023-04-29T12:58:09.732Z,15.34
2023-04-29T13:00:48.278Z,15.40
2023-04-29T13:03:22.910Z,15.45
2023-04-29T13:05:57.869Z,15.46
2023-04-29T13:08:34.381Z,15.36
2023-04-29T13:11:04.280Z,15.23
2023-04-29T13:13:34.068Z,15.07
2023-04-29T13:16:07.749Z,15.08
2023-04-29T13:18:39.013Z,15.09
2023-04-29T13:21:09.043Z,15.07
2023-04-29T13:23:41.454Z,15.01
2023-04-29T13:26:13.209Z,14.85
2023-04-29T13:28:43.806Z,14.78
2023-04-29T13:31:13.709Z,14.74
2023-04-29T13:33:43.623Z,14.73
2023-04-29T13:36:13.526Z,14.74
2023-04-29T13:38:48.132Z,14.72
2023-04-29T13:41:20.448Z,14.71
2023-04-29T13:43:51.129Z,14.79
2023-04-29T13:46:21.318Z,14.76
2023-04-29T13:52:06.670Z,14.64
2023-04-29T14:02:23.179Z,14.75
2023-04-29T14:04:45.058Z,14.76
2023-04-29T14:07:17.475Z,14.74
2023-04-29T14:09:49.870Z,14.68
2023-04-29T14:12:19.666Z,14.77
2023-04-29T14:14:49.503Z,14.83
2023-04-29T14:17:19.314Z,14.78
2023-04-29T14:19:49.158Z,14.78
2023-04-29T14:22:18.989Z,14.75
2023-04-29T14:24:51.931Z,14.79
2023-04-29T14:27:22.184Z,14.78
2023-04-29T14:29:52.027Z,14.69
2023-04-29T14:32:21.836Z,14.67
2023-04-29T14:34:53.327Z,14.68
2023-04-29T14:37:25.146Z,14.75
2023-04-29T14:39:58.132Z,14.79
2023-04-29T14:42:29.361Z,14.90
2023-04-29T14:45:02.240Z,15.02
2023-04-29T14:47:35.038Z,15.02
2023-04-29T14:50:08.194Z,14.94
2023-04-29T14:55:41.463Z,14.85
2023-04-29T14:58:13.664Z,14.83
2023-04-29T15:00:51.247Z,14.86
2023-04-29T15:03:28.436Z,14.93
2023-04-29T15:06:02.556Z,14.93
2023-04-29T15:08:40.516Z,14.96
2023-04-29T15:11:14.499Z,14.84
2023-04-29T15:13:46.550Z,14.81
2023-04-29T15:16:16.461Z,14.75
2023-04-29T15:18:46.754Z,14.73
2023-04-29T15:21:18.894Z,14.66
2023-04-29T15:23:48.888Z,14.55
2023-04-29T15:26:22.019Z,14.48
2023-04-29T15:28:51.872Z,14.38
2023-04-29T15:31:24.305Z,14.31
2023-04-29T15:33:57.184Z,14.26
2023-04-29T15:36:32.362Z,14.25
2023-04-29T15:39:02.394Z,14.25
2023-04-29T15:41:35.568Z,14.17
2023-04-29T15:44:05.536Z,14.15
2023-04-29T15:46:35.403Z,14.17
2023-04-29T15:49:06.236Z,14.10
2023-04-29T15:51:36.108Z,14.09
2023-04-29T15:54:07.514Z,13.99
2023-04-29T15:56:40.326Z,13.94
2023-04-29T15:59:10.178Z,13.90
2023-04-29T16:01:40.075Z,13.86
2023-04-29T16:04:11.530Z,13.87
2023-04-29T16:06:46.910Z,13.84
2023-04-29T16:09:16.852Z,13.83
2023-04-29T16:11:49.299Z,13.84
2023-04-29T16:14:19.189Z,13.82
2023-04-29T16:16:49.069Z,13.76
2023-04-29T16:19:18.994Z,13.75
2023-04-29T16:21:48.852Z,13.74
2023-04-29T16:24:18.917Z,13.70
2023-04-29T16:26:52.448Z,13.66
2023-04-29T16:29:22.384Z,13.68
2023-04-29T16:31:52.339Z,13.71
2023-04-29T16:34:22.254Z,13.73
2023-04-29T16:36:52.123Z,13.68
2023-04-29T16:39:21.925Z,13.66
2023-04-29T16:41:54.489Z,13.60
2023-04-29T16:44:24.346Z,13.60
2023-04-29T16:46:54.996Z,13.61
2023-04-29T16:49:28.311Z,13.61
2023-04-29T16:51:58.210Z,13.67
2023-04-29T16:54:28.045Z,13.74
2023-04-29T16:57:00.503Z,13.77
2023-04-29T16:59:31.113Z,13.78
2023-04-29T17:02:03.042Z,13.82
2023-04-29T17:04:34.168Z,13.87
2023-04-29T17:07:04.339Z,13.91
2023-04-29T17:09:38.304Z,13.90
2023-04-29T17:12:11.302Z,13.85
2023-04-29T17:14:41.151Z,13.81
2023-04-29T17:17:21.758Z,13.79
2023-04-29T17:19:55.791Z,13.74
2023-04-29T17:22:36.865Z,13.68
2023-04-29T17:25:08.484Z,13.62
2023-04-29T17:27:41.258Z,13.56
2023-04-29T17:30:17.485Z,13.53
2023-04-29T17:32:56.305Z,13.54
2023-04-29T17:35:27.492Z,13.53
2023-04-29T17:37:57.278Z,13.45
2023-04-29T17:40:27.391Z,13.37
2023-04-29T17:42:59.760Z,13.33
2023-04-29T17:45:29.656Z,13.28
2023-04-29T17:47:59.512Z,13.23
2023-04-29T17:50:30.932Z,13.18
2023-04-29T17:53:00.820Z,13.13
2023-04-29T17:55:31.198Z,13.11
2023-04-29T17:58:03.603Z,13.07
2023-04-29T18:00:35.234Z,13.04
2023-04-29T18:03:05.237Z,13.05
2023-04-29T18:05:37.483Z,12.98
2023-04-29T18:08:08.067Z,12.92
2023-04-29T18:10:37.884Z,12.91
2023-04-29T18:13:10.260Z,12.84
2023-04-29T18:15:40.108Z,12.75
2023-04-29T18:18:10.081Z,12.65
2023-04-29T18:20:43.261Z,12.51
2023-04-29T18:23:14.235Z,12.45
2023-04-29T18:25:44.112Z,12.49
2023-04-29T18:28:24.627Z,12.42
2023-04-29T18:30:57.042Z,12.32
2023-04-29T18:33:27.012Z,12.25
2023-04-29T18:35:57.416Z,12.16
2023-04-29T18:38:27.337Z,12.12
2023-04-29T18:40:57.243Z,12.06
2023-04-29T18:43:31.137Z,12.03
2023-04-29T18:46:02.916Z,12.05
2023-04-29T18:48:32.756Z,12.06
2023-04-29T18:51:04.526Z,12.04
2023-04-29T18:53:34.507Z,12.00
2023-04-29T18:56:07.406Z,11.95
2023-04-29T18:58:39.795Z,11.88
2023-04-29T19:01:09.941Z,11.82
2023-04-29T19:03:40.481Z,11.81
2023-04-29T19:06:10.475Z,11.78
2023-04-29T19:08:40.340Z,11.75
2023-04-29T19:11:10.137Z,11.72
2023-04-29T19:13:42.579Z,11.59
2023-04-29T19:16:13.295Z,11.52
2023-04-29T19:18:43.222Z,11.52
2023-04-29T19:21:14.929Z,11.51
2023-04-29T19:23:44.937Z,11.50
2023-04-29T19:26:18.568Z,11.50
2023-04-29T19:28:50.982Z,11.51
2023-04-29T19:31:20.869Z,11.50
2023-04-29T19:33:52.535Z,11.51
2023-04-29T19:36:22.467Z,11.52
2023-04-29T19:38:52.334Z,11.52
2023-04-29T19:41:22.760Z,11.55
2023-04-29T19:43:55.195Z,11.56
2023-04-29T19:46:25.086Z,11.58
2023-04-29T19:48:55.262Z,11.58
2023-04-29T19:51:25.451Z,11.60
2023-04-29T19:53:56.722Z,11.64
2023-04-29T19:56:26.637Z,11.65
2023-04-29T19:58:59.075Z,11.65
2023-04-29T20:01:28.904Z,11.66
2023-04-29T20:03:58.698Z,11.68
2023-04-29T20:06:29.935Z,11.69
2023-04-29T20:08:59.769Z,11.73
2023-04-29T20:11:29.744Z,11.74
2023-04-29T20:14:36.860Z,11.74
2023-04-29T20:17:00.247Z,11.74
2023-04-29T20:52:51.637Z,11.82
2023-04-29T20:55:21.482Z,11.79
2023-04-29T20:57:51.960Z,11.73
2023-04-29T21:00:21.891Z,11.63
2023-04-29T21:02:51.739Z,11.55
2023-04-29T21:05:21.600Z,11.50
2023-04-29T21:07:54.156Z,11.42
2023-04-29T21:10:24.173Z,11.37
2023-04-29T21:12:54.809Z,11.36
2023-04-29T21:15:24.837Z,11.34
2023-04-29T21:17:54.709Z,11.32
2023-04-29T21:20:25.318Z,11.30
2023-04-29T21:22:58.548Z,11.27
2023-04-29T21:25:28.464Z,11.27
2023-04-29T21:27:58.314Z,11.24
2023-04-29T21:30:28.689Z,11.21
2023-04-29T21:32:58.559Z,11.19
2023-04-29T21:35:29.694Z,11.15
2023-04-29T21:38:02.265Z,11.11
2023-04-29T21:40:32.170Z,11.09
2023-04-29T21:43:02.223Z,11.06
2023-04-29T21:45:34.875Z,11.03
2023-04-29T21:48:16.359Z,10.98
2023-04-29T21:50:47.011Z,10.95
2023-04-29T21:53:19.776Z,10.93
2023-04-29T21:55:49.673Z,10.90
2023-04-29T23:41:23.325Z,10.02
2023-04-29T23:43:53.137Z,9.99
2023-04-29T23:46:23.161Z,9.95
2023-04-29T23:48:53.028Z,9.93
2023-04-29T23:51:22.925Z,9.91
2023-04-29T23:53:52.854Z,9.87
2023-04-29T23:56:30.620Z,9.84
2023-04-29T23:59:00.493Z,9.81
